Time;durP1;ratioP1;P1;durP2;ratioP2;P2;SDS_P1;SDS_P2;PMS_P1;PMS_P2;Temp;Humidity;BMP_temperature;BMP_pressure;BME280_temperature;BME280_humidity;BME280_pressure;Samples;Min_cycle;Max_cycle;Signal;HPM_P1;HPM_P2
2022/07/03 00:00:02;;;;;;;6.45;3.95;;;;;;;14.81;77.07;101216.86;1631476;88;21033;-86
2022/07/03 00:02:33;;;;;;;6.53;4.12;;;;;;;14.77;76.99;101222.31;1630526;86;21108;-82
2022/07/03 00:05:00;;;;;;;4.95;4.40;;;;;;;14.75;77.21;101226.82;1631420;88;21179;-81
2022/07/03 00:07:28;;;;;;;5.72;3.90;;;;;;;14.76;77.40;101216.19;1631561;86;21076;-81
2022/07/03 00:09:55;;;;;;;5.65;4.50;;;;;;;14.72;77.04;101219.42;1631470;88;21491;-81
2022/07/03 00:12:22;;;;;;;4.62;3.95;;;;;;;14.68;77.15;101214.32;1631606;86;21041;-81
2022/07/03 00:14:50;;;;;;;5.45;4.42;;;;;;;14.61;77.00;101220.79;1631203;86;21033;-81
2022/07/03 00:17:17;;;;;;;6.30;4.03;;;;;;;14.61;77.47;101221.64;1631356;86;21180;-85
2022/07/03 00:19:45;;;;;;;5.67;3.98;;;;;;;14.57;77.21;101221.81;1631539;86;21017;-81
2022/07/03 00:22:13;;;;;;;5.97;5.00;;;;;;;14.51;77.45;101217.15;1631331;86;21045;-80
2022/07/03 00:25:06;;;;;;;4.83;3.80;;;;;;;14.50;77.32;101214.13;1630137;86;21641;-81
2022/07/03 00:27:34;;;;;;;5.62;3.92;;;;;;;14.43;77.20;101219.23;1624386;88;21526;-81
2022/07/03 00:30:04;;;;;;;5.70;4.35;;;;;;;14.37;77.43;101219.95;1625003;87;21119;-81
2022/07/03 00:32:31;;;;;;;6.10;4.53;;;;;;;14.32;77.43;101217.48;1624678;88;21049;-81
2022/07/03 00:34:58;;;;;;;9.25;4.72;;;;;;;14.29;77.87;101216.30;1624934;86;21815;-81
2022/07/03 00:37:25;;;;;;;7.78;4.92;;;;;;;14.34;78.20;101213.02;1624690;88;21132;-81
2022/07/03 00:39:53;;;;;;;4.72;3.92;;;;;;;14.31;77.85;101221.52;1624833;87;21085;-80
2022/07/03 00:42:20;;;;;;;4.72;4.05;;;;;;;14.25;77.72;101219.98;1624593;87;21126;-82
2022/07/03 00:44:51;;;;;;;5.75;4.03;;;;;;;14.19;77.71;101218.88;1624884;86;21057;-81
2022/07/03 00:47:21;;;;;;;7.08;3.98;;;;;;;14.13;77.81;101208.58;1624533;87;21081;-81
2022/07/03 00:49:52;;;;;;;7.20;4.67;;;;;;;14.15;78.54;101212.87;1624958;87;21050;-83
2022/07/03 00:52:21;;;;;;;5.70;4.65;;;;;;;14.22;79.19;101205.61;1624760;88;21061;-81
2022/07/03 00:54:58;;;;;;;6.28;4.17;;;;;;;14.31;79.20;101213.61;1624845;86;21117;-81
2022/07/03 00:57:29;;;;;;;4.33;3.92;;;;;;;14.28;78.81;101211.48;1624530;87;21065;-84
2022/07/03 00:59:57;;;;;;;4.90;4.37;;;;;;;14.27;78.95;101210.21;1624919;88;21057;-81
2022/07/03 01:02:42;;;;;;;4.83;3.95;;;;;;;14.23;78.80;101206.84;1624619;88;21570;-85
2022/07/03 01:05:39;;;;;;;4.87;4.03;;;;;;;14.22;78.89;101195.91;1624946;87;21085;-82
2022/07/03 01:08:20;;;;;;;4.62;4.15;;;;;;;14.17;78.68;101194.38;1624621;88;21963;-81
2022/07/03 01:11:12;;;;;;;4.25;3.85;;;;;;;14.12;78.72;101188.42;1624863;86;21072;-81
2022/07/03 01:14:09;;;;;;;6.62;4.47;;;;;;;14.06;78.74;101185.09;1624648;87;21088;-83
2022/07/03 01:17:03;;;;;;;4.78;4.33;;;;;;;14.00;78.75;101190.62;1624788;88;21080;-81
2022/07/03 01:19:46;;;;;;;5.10;4.00;;;;;;;14.01;79.08;101187.52;1607902;88;21113;-81
2022/07/03 01:22:36;;;;;;;7.30;3.95;;;;;;;13.93;78.81;101180.36;1624730;87;21159;-84
2022/07/03 01:25:17;;;;;;;4.85;4.42;;;;;;;13.91;79.10;101175.17;1624716;86;21082;-81
2022/07/03 01:28:06;;;;;;;4.70;4.30;;;;;;;13.84;78.94;101173.20;1624646;88;21082;-84
2022/07/03 01:30:50;;;;;;;11.40;4.15;;;;;;;13.82;79.38;101174.18;1623902;88;21621;-83
2022/07/03 01:33:26;;;;;;;6.30;4.17;;;;;;;13.84;79.45;101175.84;1624720;87;21632;-81
2022/07/03 01:36:05;;;;;;;6.08;4.15;;;;;;;13.82;79.20;101176.81;1624558;87;21220;-81
2022/07/03 01:38:37;;;;;;;4.65;4.20;;;;;;;13.76;79.22;101172.64;1624558;87;21077;-81
2022/07/03 01:41:08;;;;;;;5.08;4.35;;;;;;;13.75;79.57;101177.52;1624606;87;21086;-81
2022/07/03 01:43:40;;;;;;;4.90;4.40;;;;;;;13.74;79.35;101175.78;1624938;86;21061;-85
2022/07/03 01:46:09;;;;;;;9.73;4.28;;;;;;;13.68;79.25;101176.48;1624378;87;21297;-85
2022/07/03 01:48:39;;;;;;;4.65;4.25;;;;;;;13.66;79.77;101179.16;1624989;87;21216;-85
2022/07/03 01:51:07;;;;;;;5.40;4.22;;;;;;;13.72;79.95;101170.20;1624426;88;21566;-83
2022/07/03 01:53:36;;;;;;;4.67;3.83;;;;;;;13.70;79.67;101168.07;1624840;86;21136;-81
2022/07/03 01:56:05;;;;;;;4.95;4.00;;;;;;;13.65;79.61;101164.28;1624604;88;21098;-82
2022/07/03 01:58:33;;;;;;;5.30;3.90;;;;;;;13.59;79.31;101167.16;1624720;87;21554;-81
2022/07/03 02:01:21;;;;;;;7.65;4.10;;;;;;;13.52;79.44;101165.22;1624645;88;21169;-81
2022/07/03 02:04:19;;;;;;;4.70;4.20;;;;;;;13.47;79.66;101163.21;1624738;87;21670;-82
2022/07/03 02:07:00;;;;;;;8.40;3.95;;;;;;;13.50;80.12;101160.45;1608614;88;21056;-81
2022/07/03 02:09:51;;;;;;;4.92;3.42;;;;;;;13.51;79.92;101165.27;1624730;86;21125;-81
2022/07/03 02:12:21;;;;;;;4.75;3.67;;;;;;;13.46;79.73;101157.98;1623661;88;21600;-82
2022/07/03 02:14:57;;;;;;;6.45;3.92;;;;;;;13.38;79.87;101155.19;1624685;87;21133;-81
2022/07/03 02:17:27;;;;;;;5.75;3.85;;;;;;;13.39;80.34;101158.22;1621377;88;21530;-81
2022/07/03 02:20:06;;;;;;;7.72;4.67;;;;;;;13.41;79.96;101161.23;1624791;87;21489;-81
2022/07/03 02:22:42;;;;;;;7.53;3.62;;;;;;;13.36;80.28;101158.33;1624714;87;21061;-81
2022/07/03 02:25:19;;;;;;;6.83;3.98;;;;;;;13.40;80.29;101166.97;1625328;87;21548;-81
2022/07/03 02:27:59;;;;;;;6.55;3.72;;;;;;;13.38;80.27;101165.73;1631393;88;21527;-83
2022/07/03 02:30:29;;;;;;;7.17;3.42;;;;;;;13.33;80.04;101162.83;1630786;87;21592;-82
2022/07/03 02:32:59;;;;;;;4.17;3.77;;;;;;;13.24;79.87;101165.30;1631508;86;21115;-82
2022/07/03 02:35:28;;;;;;;;;;;;;;;13.24;80.58;101167.09;1633972;87;21076;-84
2022/07/03 02:38:12;;;;;;;4.22;3.62;;;;;;;13.22;80.37;101170.22;1650120;86;20495;-81
2022/07/03 02:41:19;;;;;;;7.90;4.37;;;;;;;13.18;80.52;101162.44;1675931;85;21309;-81
2022/07/03 02:44:27;;;;;;;7.05;4.10;;;;;;;13.25;81.30;101160.92;1676416;85;21035;-84
2022/07/03 02:47:02;;;;;;;6.95;4.20;;;;;;;13.30;80.75;101162.94;1641105;86;21128;-84
2022/07/03 02:49:48;;;;;;;7.03;4.30;;;;;;;13.22;80.70;101164.52;1641271;87;21079;-82
2022/07/03 02:52:42;;;;;;;5.03;4.22;;;;;;;13.22;81.06;101163.64;1641157;87;21031;-81
2022/07/03 02:55:45;;;;;;;5.05;4.12;;;;;;;13.26;81.24;101163.52;1641346;87;21932;-84
2022/07/03 02:58:40;;;;;;;7.83;4.10;;;;;;;13.29;81.12;101165.19;1632170;87;21085;-81
2022/07/03 03:01:15;;;;;;;5.17;3.98;;;;;;;13.29;81.31;101165.19;1632160;87;21578;-82
2022/07/03 03:03:47;;;;;;;4.15;3.77;;;;;;;13.30;81.29;101158.99;1636365;87;21078;-84
2022/07/03 03:06:17;;;;;;;6.85;4.12;;;;;;;13.31;81.32;101156.78;1636311;87;21111;-81
2022/07/03 03:08:51;;;;;;;5.05;4.10;;;;;;;13.31;81.39;101149.73;1636593;87;27105;-81
2022/07/03 03:11:34;;;;;;;4.80;3.67;;;;;;;13.31;81.41;101149.73;1636276;87;21556;-83
2022/07/03 03:14:05;;;;;;;5.85;3.55;;;;;;;13.30;81.16;101150.66;1635730;87;21160;-81
2022/07/03 03:16:32;;;;;;;7.67;4.37;;;;;;;13.30;81.32;101151.09;1636433;87;21094;-81
2022/07/03 03:18:59;;;;;;;7.42;4.33;;;;;;;13.32;81.92;101140.91;1636393;87;21086;-82
2022/07/03 03:21:29;;;;;;;6.22;4.15;;;;;;;13.39;81.96;101137.61;1636520;87;21098;-81
2022/07/03 03:23:58;;;;;;;8.58;4.47;;;;;;;13.37;81.56;101132.39;1668745;85;24734;-81
2022/07/03 03:26:31;;;;;;;9.43;4.43;;;;;;;13.34;81.53;101130.34;1681862;84;21529;-81
2022/07/03 03:28:59;;;;;;;7.35;4.87;;;;;;;13.35;81.63;101137.31;1691757;84;21051;-81
2022/07/03 03:31:27;;;;;;;10.55;5.17;;;;;;;13.32;81.44;101143.55;1692016;84;21586;-82
2022/07/03 03:33:56;;;;;;;11.15;5.15;;;;;;;13.34;82.00;101139.09;1691692;84;22057;-82
2022/07/03 03:36:23;;;;;;;7.17;5.28;;;;;;;13.40;82.00;101135.37;1691812;84;21541;-81
2022/07/03 03:38:51;;;;;;;6.37;5.60;;;;;;;13.41;81.98;101137.08;1691739;84;21031;-83
2022/07/03 03:41:18;;;;;;;10.13;5.75;;;;;;;13.43;82.09;101139.20;1691911;84;21035;-81
2022/07/03 03:43:45;;;;;;;6.45;4.67;;;;;;;13.43;81.99;101138.34;1691787;84;20991;-81
2022/07/03 03:46:15;;;;;;;5.55;4.90;;;;;;;13.45;82.33;101136.52;1691960;84;21117;-85
2022/07/03 03:48:43;;;;;;;5.17;4.67;;;;;;;13.49;82.45;101133.70;1691890;84;20993;-84
2022/07/03 03:51:09;;;;;;;7.25;5.17;;;;;;;13.54;82.62;101130.44;1668185;84;21035;-84
2022/07/03 03:53:37;;;;;;;6.65;5.45;;;;;;;13.61;82.66;101129.30;1691738;84;21087;-85
2022/07/03 03:56:08;;;;;;;11.53;5.03;;;;;;;13.66;83.04;101125.63;1691767;84;21067;-85
2022/07/03 03:58:39;;;;;;;6.50;5.12;;;;;;;13.75;83.33;101133.20;1691737;84;21331;-86
2022/07/03 04:01:08;;;;;;;6.15;4.72;;;;;;;13.82;83.58;101124.12;1691702;84;21047;-85
2022/07/03 04:03:36;;;;;;;5.40;4.90;;;;;;;13.86;83.41;101119.14;1691696;84;21060;-85
2022/07/03 04:06:04;;;;;;;7.53;4.65;;;;;;;13.92;83.62;101122.00;1691807;84;21047;-85
2022/07/03 04:08:32;;;;;;;5.67;5.00;;;;;;;13.97;83.69;101120.04;1691817;84;21495;-82
2022/07/03 04:11:00;;;;;;;5.53;4.78;;;;;;;14.09;84.19;101116.05;1691666;84;21959;-82
2022/07/03 04:13:28;;;;;;;5.50;4.45;;;;;;;14.16;83.97;101114.86;1691607;84;21591;-85
2022/07/03 04:15:55;;;;;;;5.87;5.17;;;;;;;14.23;84.09;101118.98;1691746;84;21011;-82
2022/07/03 04:18:22;;;;;;;7.85;5.12;;;;;;;14.31;84.06;101116.89;1691710;84;21075;-83
2022/07/03 04:20:49;;;;;;;7.58;4.97;;;;;;;14.39;84.03;101113.95;1691728;84;20999;-83
2022/07/03 04:23:16;;;;;;;9.08;6.30;;;;;;;14.44;84.03;101111.98;1691878;84;21190;-84
2022/07/03 04:25:43;;;;;;;6.55;5.78;;;;;;;14.52;84.11;101109.88;1691536;84;21015;-83
2022/07/03 04:28:11;;;;;;;12.90;7.33;;;;;;;14.57;83.99;101112.33;1691745;84;21016;-81
2022/07/03 04:30:39;;;;;;;11.03;6.85;;;;;;;14.61;83.96;101122.70;1684080;84;21069;-83
2022/07/03 04:33:06;;;;;;;9.20;7.30;;;;;;;14.68;84.12;101118.01;1673044;84;21564;-85
2022/07/03 04:35:32;;;;;;;9.90;7.25;;;;;;;14.77;84.18;101130.83;1663879;84;21173;-84
2022/07/03 04:38:00;;;;;;;9.58;7.05;;;;;;;14.83;84.06;101128.39;1662491;84;21028;-85
2022/07/03 04:40:26;;;;;;;9.03;6.67;;;;;;;14.89;84.14;101142.17;1665874;84;21513;-86
2022/07/03 04:42:53;;;;;;;8.40;6.58;;;;;;;14.95;83.90;101140.58;1663186;84;21035;-85
2022/07/03 04:45:21;;;;;;;9.53;6.33;;;;;;;15.04;83.92;101143.27;1665502;84;21588;-85
2022/07/03 04:47:48;;;;;;;6.97;5.85;;;;;;;15.10;83.88;101146.99;1662749;84;21805;-85
2022/07/03 04:50:14;;;;;;;7.65;6.22;;;;;;;15.16;83.95;101137.94;1688122;84;21025;-85
2022/07/03 04:52:41;;;;;;;7.15;5.87;;;;;;;15.26;84.27;101138.37;1682225;84;21053;-85
2022/07/03 04:55:09;;;;;;;8.53;5.90;;;;;;;15.33;84.24;101138.50;1679429;84;21021;-84
2022/07/03 04:57:37;;;;;;;9.18;5.35;;;;;;;15.42;84.22;101134.58;1669881;84;21624;-85
2022/07/03 05:00:06;;;;;;;8.78;5.45;;;;;;;15.49;84.34;101135.56;1670183;84;21945;-84
2022/07/03 05:02:33;;;;;;;8.63;5.73;;;;;;;15.60;84.41;101139.89;1664952;84;20892;-85
2022/07/03 05:05:00;;;;;;;6.47;5.85;;;;;;;15.68;84.48;101137.34;1666216;84;21116;-84
2022/07/03 05:07:27;;;;;;;6.20;5.60;;;;;;;15.80;84.56;101140.78;1686588;84;21518;-86
2022/07/03 05:09:54;;;;;;;6.95;5.72;;;;;;;15.88;84.39;101142.59;1682292;84;21072;-85
2022/07/03 05:12:21;;;;;;;7.22;5.70;;;;;;;15.97;84.27;101141.30;1686510;84;21079;-86
2022/07/03 05:14:48;;;;;;;6.12;5.50;;;;;;;16.03;84.21;101139.20;1684971;83;21084;-85
2022/07/03 05:17:19;;;;;;;7.30;5.40;;;;;;;16.12;84.03;101139.70;1684332;84;21060;-83
2022/07/03 05:19:46;;;;;;;5.95;5.35;;;;;;;16.19;84.10;101139.33;1686819;84;21293;-80
2022/07/03 05:22:13;;;;;;;5.97;5.40;;;;;;;16.39;83.92;101151.58;1677737;84;21115;-83
2022/07/03 05:24:40;;;;;;;6.20;5.60;;;;;;;16.39;83.92;101151.58;1665661;84;21958;-79
2022/07/03 05:27:07;;;;;;;5.58;5.08;;;;;;;16.43;83.50;101150.51;1681292;84;21612;-82
2022/07/03 05:29:34;;;;;;;4.72;4.33;;;;;;;16.54;83.03;101148.63;1692254;84;21484;-89
2022/07/03 05:32:01;;;;;;;5.47;4.92;;;;;;;16.54;83.03;101148.63;1692457;84;21627;-83
2022/07/03 05:34:28;;;;;;;6.62;5.10;;;;;;;16.69;82.94;101139.08;1692433;84;21403;-81
2022/07/03 05:36:56;;;;;;;6.37;5.25;;;;;;;16.69;82.94;101139.08;1657435;85;21104;-81
2022/07/03 05:39:32;;;;;;;6.83;4.83;;;;;;;16.77;82.80;101144.88;1693335;84;21019;-87
2022/07/03 05:42:00;;;;;;;6.15;5.25;;;;;;;16.83;82.72;101141.90;1670439;84;21108;-84
2022/07/03 05:44:27;;;;;;;5.50;4.85;;;;;;;16.93;82.77;101141.83;1693440;84;21551;-83
2022/07/03 05:46:54;;;;;;;6.45;4.87;;;;;;;17.03;82.32;101138.69;1672761;84;21037;-81
2022/07/03 05:49:21;;;;;;;4.80;4.37;;;;;;;17.10;82.42;101137.45;1668367;84;21132;-82
2022/07/03 05:51:48;;;;;;;4.95;4.42;;;;;;;17.17;82.45;101138.81;1692660;84;21578;-82
2022/07/03 05:54:15;;;;;;;5.75;4.75;;;;;;;17.24;82.12;101137.56;1692586;84;21024;-81
2022/07/03 05:56:42;;;;;;;4.78;4.12;;;;;;;17.34;82.03;101139.24;1692734;84;21031;-83
2022/07/03 05:59:09;;;;;;;5.12;4.62;;;;;;;17.41;81.68;101135.34;1668719;84;21272;-82
2022/07/03 06:01:36;;;;;;;5.87;4.60;;;;;;;17.48;81.69;101131.40;1689693;84;21956;-82
2022/07/03 06:04:04;;;;;;;4.72;4.25;;;;;;;17.58;81.79;101129.97;1670428;84;21083;-81
2022/07/03 06:06:31;;;;;;;4.00;3.40;;;;;;;17.67;81.41;101129.08;1672101;84;21015;-79
2022/07/03 06:08:58;;;;;;;6.20;4.40;;;;;;;17.76;81.33;101129.89;1675370;84;21038;-81
2022/07/03 06:11:25;;;;;;;4.67;4.17;;;;;;;17.84;81.09;101129.02;1678777;84;21020;-83
2022/07/03 06:13:52;;;;;;;4.42;3.70;;;;;;;17.93;81.03;101125.00;1668712;84;21157;-81
2022/07/03 06:16:19;;;;;;;4.05;3.40;;;;;;;18.03;80.99;101125.72;1668781;84;21048;-79
2022/07/03 06:18:46;;;;;;;3.87;3.45;;;;;;;18.13;80.77;101119.91;1668718;84;21044;-79
2022/07/03 06:21:13;;;;;;;4.90;3.55;;;;;;;18.21;80.49;101119.00;1668967;84;21091;-80
2022/07/03 06:23:40;;;;;;;3.40;3.10;;;;;;;18.29;80.38;101116.77;1686843;84;21031;-83
2022/07/03 06:26:07;;;;;;;6.40;3.10;;;;;;;18.42;80.34;101119.54;1699807;84;21125;-84
2022/07/03 06:28:34;;;;;;;6.03;3.35;;;;;;;18.53;80.32;101114.45;1670470;84;21099;-83
2022/07/03 06:31:01;;;;;;;4.67;3.20;;;;;;;18.64;80.17;101113.83;1676479;85;21011;-84
2022/07/03 06:33:28;;;;;;;3.90;3.05;;;;;;;18.72;79.64;101117.73;1676396;85;21547;-84
2022/07/03 06:35:55;;;;;;;3.25;2.65;;;;;;;18.78;79.03;101115.69;1676378;85;21011;-86
2022/07/03 06:38:22;;;;;;;3.62;2.75;;;;;;;18.83;78.46;101113.62;1676429;85;21229;-85
2022/07/03 06:40:49;;;;;;;7.22;2.80;;;;;;;18.88;78.21;101114.20;1676358;85;20976;-80
2022/07/03 06:43:16;;;;;;;5.17;2.67;;;;;;;18.95;78.10;101116.84;1676431;85;21078;-82
2022/07/03 06:45:43;;;;;;;5.47;3.08;;;;;;;19.03;77.60;101113.25;1676529;85;21091;-79
2022/07/03 06:48:10;;;;;;;3.50;2.37;;;;;;;19.09;77.17;101110.69;1676378;85;21611;-81
2022/07/03 06:50:38;;;;;;;3.90;2.80;;;;;;;19.14;76.82;101112.59;1676391;85;21150;-81
2022/07/03 06:53:05;;;;;;;2.90;2.60;;;;;;;19.17;76.25;101109.27;1676435;85;21457;-81
2022/07/03 06:55:32;;;;;;;2.75;2.35;;;;;;;19.21;75.99;101106.45;1676370;85;21023;-81
2022/07/03 06:57:59;;;;;;;4.35;2.45;;;;;;;19.31;75.91;101107.56;1676388;85;21449;-82
2022/07/03 07:00:26;;;;;;;2.25;1.80;;;;;;;19.34;75.41;101101.60;1676634;85;21043;-81
2022/07/03 07:02:54;;;;;;;3.33;2.22;;;;;;;19.38;74.85;101104.43;1676466;85;22140;-81
2022/07/03 07:05:22;;;;;;;2.83;1.70;;;;;;;19.42;74.72;101097.11;1676590;83;21010;-81
2022/07/03 07:07:50;;;;;;;4.15;2.30;;;;;;;19.49;74.38;101093.61;1676355;85;21078;-82
2022/07/03 07:10:17;;;;;;;2.83;2.20;;;;;;;19.57;74.36;101093.98;1676794;85;21070;-83
2022/07/03 07:12:44;;;;;;;2.70;2.17;;;;;;;19.65;74.53;101087.69;1676381;85;21047;-81
2022/07/03 07:15:11;;;;;;;3.52;2.05;;;;;;;19.77;74.34;101093.57;1676438;85;21347;-83
2022/07/03 07:17:39;;;;;;;3.42;2.33;;;;;;;19.86;73.99;101088.61;1676495;85;21046;-82
2022/07/03 07:20:07;;;;;;;3.22;1.87;;;;;;;19.94;73.69;101083.16;1676499;85;21026;-82
2022/07/03 07:22:34;;;;;;;2.25;1.50;;;;;;;20.06;73.44;101080.16;1676601;84;21034;-83
2022/07/03 07:25:02;;;;;;;3.62;1.67;;;;;;;20.20;72.98;101076.59;1676359;85;21034;-80
2022/07/03 07:27:28;;;;;;;3.17;2.02;;;;;;;20.28;72.60;101072.94;1676394;85;21144;-83
2022/07/03 07:29:56;;;;;;;2.85;1.62;;;;;;;20.34;71.91;101075.21;1676452;84;21500;-83
2022/07/03 07:32:23;;;;;;;3.55;1.77;;;;;;;20.39;71.49;101074.39;1676625;85;21023;-83
2022/07/03 07:34:51;;;;;;;4.40;3.65;;;;;;;20.43;71.26;101075.06;1676467;85;21522;-83
2022/07/03 07:37:19;;;;;;;5.58;3.25;;;;;;;20.44;70.27;101069.62;1676620;85;21098;-82
2022/07/03 07:39:46;;;;;;;5.50;3.83;;;;;;;20.50;70.07;101074.52;1676443;85;21097;-85
2022/07/03 07:42:13;;;;;;;4.22;3.80;;;;;;;20.58;69.78;101074.52;1676700;85;21540;-82
2022/07/03 07:44:40;;;;;;;7.67;4.65;;;;;;;20.68;69.51;101072.46;1676339;85;21090;-83
2022/07/03 07:47:07;;;;;;;5.08;4.58;;;;;;;20.75;69.03;101073.36;1676736;85;21030;-83
2022/07/03 07:49:35;;;;;;;5.42;4.92;;;;;;;20.79;68.58;101072.20;1676393;85;21019;-83
2022/07/03 07:52:02;;;;;;;4.95;4.47;;;;;;;20.82;68.31;101066.18;1676727;85;21130;-84
2022/07/03 07:54:30;;;;;;;5.22;4.28;;;;;;;20.86;67.76;101068.14;1676411;83;20999;-83
2022/07/03 07:56:57;;;;;;;4.37;3.85;;;;;;;20.90;67.74;101065.17;1676518;85;21016;-84
2022/07/03 07:59:24;;;;;;;4.60;4.17;;;;;;;20.99;67.78;101063.66;1676415;85;21030;-82
2022/07/03 08:07:22;;;;;;;3.90;2.90;;;;;;;21.27;67.17;101060.37;1637898;85;21467;-82
2022/07/03 08:09:52;;;;;;;3.37;3.05;;;;;;;21.37;66.58;101066.31;1676403;85;20999;-84
2022/07/03 08:12:18;;;;;;;3.00;2.72;;;;;;;21.41;66.06;101063.42;1676863;84;21039;-84
2022/07/03 08:14:45;;;;;;;4.12;3.15;;;;;;;21.43;65.65;101063.69;1676374;85;21015;-81
2022/07/03 08:17:12;;;;;;;4.95;3.72;;;;;;;21.39;65.23;101059.52;1676502;85;21512;-83
2022/07/03 08:19:40;;;;;;;3.67;3.37;;;;;;;21.36;64.83;101060.55;1676398;85;21513;-77
2022/07/03 08:22:07;;;;;;;3.95;3.62;;;;;;;21.40;65.04;101065.73;1676564;85;21523;-82
2022/07/03 08:24:34;;;;;;;5.10;3.95;;;;;;;21.48;64.69;101053.54;1676393;85;21030;-81
2022/07/03 08:27:01;;;;;;;4.75;4.25;;;;;;;21.71;65.20;101049.19;1677683;84;21545;-79
2022/07/03 08:29:28;;;;;;;5.15;4.65;;;;;;;21.94;65.07;101050.14;1696662;84;21186;-82
2022/07/03 08:31:56;;;;;;;6.40;4.12;;;;;;;22.14;64.61;101043.79;1696569;84;21051;-82
2022/07/03 08:34:23;;;;;;;4.42;4.00;;;;;;;22.27;63.93;101043.27;1696708;84;21022;-82
2022/07/03 08:36:51;;;;;;;4.10;3.70;;;;;;;22.40;63.87;101049.38;1696895;84;21011;-82
2022/07/03 08:39:18;;;;;;;3.85;3.42;;;;;;;22.49;62.76;101050.00;1696619;84;21086;-82
2022/07/03 08:41:48;;;;;;;4.80;3.72;;;;;;;22.39;62.11;101041.02;1697028;84;21752;-82
2022/07/03 08:44:18;;;;;;;4.95;4.45;;;;;;;22.35;61.72;101043.53;1696685;83;21044;-83
2022/07/03 08:46:47;;;;;;;5.25;3.35;;;;;;;22.37;61.42;101042.09;1697005;84;28159;-81
2022/07/03 08:49:14;;;;;;;;;;;;;;;22.44;61.59;101038.81;1699339;84;21050;-83
2022/07/03 08:51:42;;;;;;;3.50;3.20;;;;;;;22.52;61.07;101040.06;1696879;84;21218;-82
2022/07/03 08:54:10;;;;;;;3.35;3.05;;;;;;;22.57;61.06;101036.55;1696670;84;21091;-81
2022/07/03 08:56:37;;;;;;;4.15;3.17;;;;;;;22.77;61.43;101041.19;1684665;84;21112;-80
2022/07/03 08:59:07;;;;;;;3.62;3.08;;;;;;;22.87;60.94;101039.50;1665019;84;21067;-84
2022/07/03 09:01:41;;;;;;;3.95;3.10;;;;;;;22.93;60.64;101043.52;1671004;84;21052;-83
2022/07/03 09:04:05;;;;;;;3.10;2.83;;;;;;;22.97;60.33;101042.31;1666754;84;21577;-83
2022/07/03 09:06:34;;;;;;;2.92;2.45;;;;;;;23.04;60.33;101034.67;1674388;84;21890;-81
2022/07/03 09:09:03;;;;;;;4.53;2.35;;;;;;;23.16;60.49;101031.02;1667640;84;21096;-81
2022/07/03 09:11:30;;;;;;;5.17;2.70;;;;;;;23.26;59.88;101037.83;1667849;84;21052;-81
2022/07/03 09:13:57;;;;;;;2.30;2.10;;;;;;;23.29;59.38;101034.41;1670381;84;21040;-80
2022/07/03 09:16:24;;;;;;;2.70;2.40;;;;;;;23.36;58.92;101025.39;1666884;84;21075;-82
2022/07/03 09:18:51;;;;;;;3.05;2.10;;;;;;;23.51;59.31;101012.61;1670848;84;21279;-83
2022/07/03 09:21:20;;;;;;;2.27;2.08;;;;;;;23.75;59.27;101016.44;1666807;84;21099;-83
2022/07/03 09:23:47;;;;;;;2.30;2.10;;;;;;;23.84;58.14;101015.70;1645204;85;21091;-84
2022/07/03 09:26:19;;;;;;;2.22;2.02;;;;;;;23.79;57.76;101017.41;1666768;84;21060;-82
2022/07/03 09:28:55;;;;;;;2.55;2.25;;;;;;;23.80;57.61;101014.23;1656957;85;21070;-80
2022/07/03 09:31:25;;;;;;;3.72;2.10;;;;;;;23.80;57.40;101014.23;1658365;85;22069;-80
2022/07/03 09:34:02;;;;;;;1.67;1.57;;;;;;;23.76;56.96;101010.98;1663035;85;21031;-79
2022/07/03 09:36:44;;;;;;;2.37;2.10;;;;;;;23.78;56.51;101005.51;1681515;85;21031;-80
2022/07/03 09:39:28;;;;;;;2.35;1.40;;;;;;;23.82;56.98;101002.43;1681400;85;21591;-79
2022/07/03 09:42:09;;;;;;;3.05;1.60;;;;;;;24.09;57.08;100994.91;1681793;85;21078;-81
2022/07/03 09:44:45;;;;;;;1.70;1.50;;;;;;;24.30;56.48;100999.75;1681477;85;21094;-84
2022/07/03 09:47:21;;;;;;;1.60;1.50;;;;;;;24.30;55.84;100997.07;1670899;85;21065;-82
2022/07/03 09:49:58;;;;;;;3.00;1.62;;;;;;;24.22;55.35;100998.22;1649142;85;21061;-81
2022/07/03 09:52:32;;;;;;;3.15;1.45;;;;;;;24.10;55.39;100988.55;1651467;85;21090;-80
2022/07/03 09:55:12;;;;;;;1.42;1.32;;;;;;;24.03;55.09;100989.58;1651974;85;21133;-80
2022/07/03 09:57:56;;;;;;;1.72;1.32;;;;;;;23.91;54.84;100982.06;1650284;85;21163;-82
2022/07/03 10:00:30;;;;;;;2.47;1.50;;;;;;;23.90;55.15;100975.02;1649052;85;21050;-81
2022/07/03 10:03:04;;;;;;;2.35;1.67;;;;;;;23.92;54.85;100974.91;1652314;85;21062;-80
2022/07/03 10:05:34;;;;;;;1.62;1.47;;;;;;;24.09;55.09;100968.13;1654428;85;21070;-79
2022/07/03 10:08:12;;;;;;;3.95;1.60;;;;;;;24.30;54.89;100966.27;1651240;85;21026;-80
2022/07/03 10:10:46;;;;;;;1.70;1.55;;;;;;;24.47;54.58;100970.20;1652184;85;21159;-80
2022/07/03 10:13:14;;;;;;;1.95;1.80;;;;;;;24.67;54.10;100963.97;1650115;85;21023;-81
2022/07/03 10:15:43;;;;;;;1.95;1.50;;;;;;;24.80;53.87;100966.90;1648724;85;21048;-82
2022/07/03 10:18:13;;;;;;;1.93;1.57;;;;;;;24.85;53.42;100974.05;1652077;85;21030;-81
2022/07/03 10:20:48;;;;;;;2.27;1.60;;;;;;;24.84;52.70;100965.66;1649191;85;21380;-81
2022/07/03 10:23:16;;;;;;;2.00;1.57;;;;;;;24.83;52.83;100962.60;1652889;85;21100;-82
2022/07/03 10:25:44;;;;;;;2.40;1.70;;;;;;;24.97;52.55;100959.58;1649014;85;21061;-80
2022/07/03 10:28:18;;;;;;;3.12;1.57;;;;;;;25.15;52.42;100947.20;1647582;85;21621;-82
2022/07/03 10:30:48;;;;;;;1.90;1.60;;;;;;;25.48;52.46;100947.83;1634028;86;21077;-83
2022/07/03 10:33:17;;;;;;;1.90;1.80;;;;;;;25.78;52.19;100951.38;1634079;85;21334;-81
2022/07/03 10:35:53;;;;;;;2.87;1.70;;;;;;;26.00;51.20;100961.00;1637307;85;21142;-82
2022/07/03 10:38:42;;;;;;;2.58;1.75;;;;;;;26.09;50.81;100954.76;1628877;85;21039;-81
2022/07/03 10:46:49;;;;;;;1.55;1.45;;;;;;;26.42;50.15;100945.84;1663869;85;21071;-82
2022/07/03 10:49:16;;;;;;;3.55;1.17;;;;;;;26.78;49.83;100952.23;1663921;85;21250;-78
2022/07/03 10:51:56;;;;;;;2.35;1.47;;;;;;;27.18;49.69;100944.33;1663856;85;21039;-81
2022/07/03 10:54:36;;;;;;;1.82;1.42;;;;;;;27.57;49.18;100929.23;1663809;85;21046;-85
2022/07/03 10:57:09;;;;;;;2.02;1.27;;;;;;;27.74;48.37;100927.52;1664120;85;21547;-81
2022/07/03 10:59:43;;;;;;;21.45;3.02;;;;;;;27.47;48.03;100936.56;1663857;85;21043;-83
2022/07/03 11:02:41;;;;;;;2.45;1.62;;;;;;;27.18;47.82;100932.72;1658808;85;21146;-82
2022/07/03 11:05:20;;;;;;;1.80;1.42;;;;;;;26.96;47.75;100930.76;1671705;85;20996;-82
2022/07/03 11:07:58;;;;;;;2.37;1.60;;;;;;;26.81;47.70;100933.61;1671541;85;21086;-82
2022/07/03 11:10:30;;;;;;;1.98;1.70;;;;;;;27.05;47.77;100917.77;1671867;85;20995;-83
2022/07/03 11:13:09;;;;;;;1.70;1.30;;;;;;;27.47;47.45;100917.72;1671936;85;21043;-81
2022/07/03 11:15:55;;;;;;;2.87;1.57;;;;;;;27.64;47.07;100914.16;1671672;85;21023;-83
2022/07/03 11:18:33;;;;;;;1.90;1.50;;;;;;;28.00;47.11;100911.44;1671721;85;21027;-82
2022/07/03 11:21:15;;;;;;;3.33;1.30;;;;;;;28.38;46.87;100906.59;1671651;85;21552;-82
2022/07/03 11:24:06;;;;;;;1.40;1.30;;;;;;;28.63;46.52;100902.23;1671122;85;21504;-82
2022/07/03 11:26:33;;;;;;;1.50;1.40;;;;;;;28.75;46.05;100898.21;1671643;85;21083;-82
2022/07/03 11:29:00;;;;;;;1.20;1.10;;;;;;;28.45;45.00;100889.66;1680768;84;21182;-83
2022/07/03 11:31:27;;;;;;;4.25;1.35;;;;;;;28.36;44.93;100888.41;1691582;84;21536;-82
2022/07/03 11:33:59;;;;;;;1.40;1.20;;;;;;;28.45;45.10;100889.66;1692071;84;21027;-82
2022/07/03 11:36:33;;;;;;;1.70;1.60;;;;;;;28.30;44.50;100890.41;1685027;84;21107;-83
2022/07/03 11:39:05;;;;;;;2.50;1.50;;;;;;;28.11;44.59;100886.08;1680489;84;21047;-82
2022/07/03 11:41:40;;;;;;;4.30;1.32;;;;;;;28.37;45.14;100880.66;1691839;84;21783;-82
2022/07/03 11:44:10;;;;;;;2.17;1.37;;;;;;;28.62;45.00;100880.28;1691714;84;21027;-82
2022/07/03 11:46:39;;;;;;;1.55;1.45;;;;;;;28.75;44.98;100882.03;1691808;84;21481;-82
2022/07/03 11:49:19;;;;;;;1.42;1.27;;;;;;;28.68;43.74;100883.20;1692176;84;21040;-82
2022/07/03 11:52:04;;;;;;;2.22;1.37;;;;;;;28.41;43.72;100879.34;1691845;84;21046;-82
2022/07/03 11:54:35;;;;;;;1.47;1.37;;;;;;;28.47;44.39;100878.72;1692050;84;21134;-82